Time;durP1;ratioP1;P1;durP2;ratioP2;P2;SDS_P1;SDS_P2;PMS_P1;PMS_P2;Temp;Humidity;BMP_temperature;BMP_pressure;BME280_temperature;BME280_humidity;BME280_pressure;Samples;Min_cycle;Max_cycle;Signal;HPM_P1;HPM_P2
2022/01/20 00:01:42;;;;;;;7.28;4.28;;;3.50;26.00;;;;;;5084098;28;20048;-66
2022/01/20 00:04:18;;;;;;;5.80;4.05;;;3.50;26.70;;;;;;5082731;28;20122;-65
2022/01/20 00:09:51;;;;;;;7.28;4.95;;;3.40;28.80;;;;;;5085049;28;20186;-65
2022/01/20 00:25:45;;;;;;;7.07;4.93;;;3.40;32.50;;;;;;5089618;28;20094;-64
2022/01/20 00:26:21;;;;;;;7.25;4.65;;;3.30;32.50;;;;;;5083010;28;20131;-64
2022/01/20 00:28:52;;;;;;;7.97;5.40;;;3.30;32.50;;;;;;5085371;28;20166;-65
2022/01/20 00:34:14;;;;;;;7.03;4.43;;;3.40;31.20;;;;;;5079731;28;20047;-65
2022/01/20 00:39:28;;;;;;;5.30;3.72;;;3.50;31.20;;;;;;5085858;28;20083;-66
2022/01/20 00:41:57;;;;;;;5.70;3.15;;;3.60;30.00;;;;;;5087253;28;20036;-66
2022/01/20 00:44:25;;;;;;;4.45;2.72;;;3.60;30.00;;;;;;5085484;28;20052;-64
2022/01/20 00:46:55;;;;;;;3.95;2.35;;;3.60;29.80;;;;;;5083967;28;20047;-65
2022/01/20 00:49:23;;;;;;;3.63;2.10;;;3.60;28.90;;;;;;5087512;28;20044;-65
2022/01/20 00:51:51;;;;;;;2.83;1.60;;;3.60;29.30;;;;;;5085358;28;20083;-65
2022/01/20 00:54:20;;;;;;;2.15;1.65;;;3.60;29.40;;;;;;5078627;28;20101;-65
2022/01/20 00:56:49;;;;;;;2.10;1.58;;;3.50;29.70;;;;;;5067144;28;20051;-66
2022/01/20 00:59:17;;;;;;;2.63;1.60;;;3.60;30.60;;;;;;5087608;28;20071;-65
2022/01/20 01:01:45;;;;;;;2.38;1.73;;;3.60;31.10;;;;;;5086328;28;20527;-65
2022/01/20 01:04:16;;;;;;;2.63;1.77;;;3.60;30.50;;;;;;5084194;28;20491;-65
2022/01/20 01:07:03;;;;;;;1.98;1.40;;;3.50;30.80;;;;;;5085437;28;20076;-65
2022/01/20 01:09:31;;;;;;;1.95;1.25;;;3.50;31.60;;;;;;5082612;28;20047;-64
2022/01/20 01:12:03;;;;;;;2.05;1.40;;;3.50;31.20;;;;;;5085037;28;20040;-65
2022/01/20 01:14:33;;;;;;;1.70;1.25;;;3.50;30.70;;;;;;5084732;28;20126;-65
2022/01/20 01:22:43;;;;;;;;;;;3.50;32.60;;;;;;5039214;28;20087;-65
2022/01/20 01:25:12;;;;;;;2.65;1.60;;;3.50;31.60;;;;;;5079719;28;20019;-65
2022/01/20 01:27:42;;;;;;;1.50;1.23;;;3.50;32.60;;;;;;5084451;28;20650;-65
2022/01/20 01:30:19;;;;;;;3.35;2.05;;;3.40;32.10;;;;;;5087494;28;20067;-65
2022/01/20 01:32:51;;;;;;;1.90;1.35;;;3.40;32.40;;;;;;5086339;28;20072;-65
2022/01/20 01:35:23;;;;;;;2.35;1.58;;;3.40;32.50;;;;;;5079736;28;20054;-65
2022/01/20 01:40:41;;;;;;;1.80;1.10;;;3.40;32.50;;;;;;5085329;28;20048;-65
2022/01/20 01:43:17;;;;;;;1.70;1.10;;;3.40;33.20;;;;;;5085386;28;20079;-65
2022/01/20 01:45:46;;;;;;;1.60;1.20;;;3.40;32.70;;;;;;5081959;28;20503;-65
2022/01/20 01:48:14;;;;;;;1.52;1.10;;;3.40;32.50;;;;;;5086025;28;20441;-65
2022/01/20 01:50:43;;;;;;;2.80;1.70;;;3.40;30.90;;;;;;5085039;28;20532;-65
2022/01/20 01:53:14;;;;;;;2.45;1.67;;;3.40;31.40;;;;;;5085557;28;20075;-65
2022/01/20 01:55:42;;;;;;;3.25;1.85;;;3.50;32.00;;;;;;5061064;28;20127;-66
2022/01/20 01:58:10;;;;;;;2.10;1.42;;;3.40;31.30;;;;;;5084151;28;20123;-65
2022/01/20 02:00:40;;;;;;;3.60;1.80;;;3.40;30.90;;;;;;5086147;28;20048;-64
2022/01/20 02:03:08;;;;;;;2.60;1.50;;;3.40;29.90;;;;;;5086031;28;20055;-65
2022/01/20 02:05:48;;;;;;;2.63;1.30;;;3.40;28.80;;;;;;5082024;28;20414;-65
2022/01/20 02:08:33;;;;;;;2.00;1.55;;;3.40;29.80;;;;;;5063801;28;20135;-65
2022/01/20 02:19:33;;;;;;;3.60;1.92;;;3.30;30.70;;;;;;5066410;28;20591;-64
2022/01/20 02:22:02;;;;;;;3.17;1.85;;;3.30;31.30;;;;;;5086455;28;20185;-65
2022/01/20 02:24:31;;;;;;;2.75;1.85;;;3.30;30.70;;;;;;5084398;28;20086;-66
2022/01/20 02:27:00;;;;;;;2.38;1.73;;;3.30;30.70;;;;;;5082404;28;20403;-65
2022/01/20 02:29:28;;;;;;;3.08;1.80;;;3.30;32.20;;;;;;5086907;28;20067;-66
2022/01/20 02:31:58;;;;;;;2.33;1.83;;;3.30;32.70;;;;;;5082691;28;20048;-66
2022/01/20 02:34:28;;;;;;;4.25;2.42;;;3.30;32.50;;;;;;5084151;28;20052;-66
2022/01/20 02:37:00;;;;;;;3.47;2.60;;;3.30;33.40;;;;;;5063723;28;20075;-66
2022/01/20 02:39:57;;;;;;;1.95;1.65;;;3.30;32.50;;;;;;5083406;28;20500;-65
2022/01/20 02:45:07;;;;;;;2.67;2.13;;;3.30;32.50;;;;;;5083786;28;20126;-65
2022/01/20 02:47:35;;;;;;;3.58;2.30;;;3.30;32.50;;;;;;5082086;28;20337;-66
2022/01/20 02:50:04;;;;;;;3.10;2.60;;;3.30;32.50;;;;;;5085809;28;20058;-66
2022/01/20 02:52:32;;;;;;;3.33;2.25;;;3.40;32.60;;;;;;5082263;28;20305;-66
2022/01/20 02:55:01;;;;;;;3.28;2.50;;;3.40;32.50;;;;;;5083131;28;20167;-65
2022/01/20 02:57:29;;;;;;;3.05;2.30;;;3.40;32.50;;;;;;5080399;28;20713;-65
2022/01/20 02:59:57;;;;;;;3.20;2.42;;;3.40;31.50;;;;;;5084748;28;20036;-66
2022/01/20 03:02:26;;;;;;;3.33;2.33;;;3.40;31.20;;;;;;5064984;28;20047;-65
2022/01/20 03:04:55;;;;;;;4.63;2.75;;;3.40;31.80;;;;;;5084277;28;20056;-66
2022/01/20 03:07:22;;;;;;;4.22;3.15;;;3.40;32.50;;;;;;5079052;28;20558;-65
2022/01/20 03:09:50;;;;;;;3.05;2.40;;;3.30;32.50;;;;;;5065720;28;20079;-66
2022/01/20 03:12:20;;;;;;;3.90;2.67;;;3.30;32.50;;;;;;5086319;28;20530;-65
2022/01/20 03:14:48;;;;;;;3.45;2.67;;;3.30;33.70;;;;;;5083556;28;20144;-65
2022/01/20 03:17:17;;;;;;;3.05;2.60;;;3.30;34.60;;;;;;5079717;28;20059;-65
2022/01/20 03:19:45;;;;;;;4.25;2.83;;;3.30;34.10;;;;;;5084651;28;20155;-64
2022/01/20 03:22:14;;;;;;;4.93;3.00;;;3.30;33.00;;;;;;5085678;28;20059;-65
2022/01/20 03:24:42;;;;;;;3.83;2.92;;;3.30;33.90;;;;;;5085758;28;20083;-65
2022/01/20 03:27:10;;;;;;;3.55;2.97;;;3.30;33.50;;;;;;5082685;28;20067;-65
2022/01/20 03:29:39;;;;;;;3.50;2.90;;;3.30;33.00;;;;;;5086741;28;20512;-65
2022/01/20 03:32:08;;;;;;;4.47;3.05;;;3.30;33.70;;;;;;5086176;28;20530;-65
2022/01/20 03:34:36;;;;;;;4.10;3.10;;;3.30;34.40;;;;;;5088616;28;20072;-65
2022/01/20 03:37:05;;;;;;;4.55;3.20;;;3.30;33.50;;;;;;5086588;28;20047;-66
2022/01/20 03:39:33;;;;;;;6.32;2.88;;;3.30;34.00;;;;;;5090323;28;20044;-66
2022/01/20 03:42:01;;;;;;;3.58;2.80;;;3.30;33.70;;;;;;5087002;28;20142;-66
2022/01/20 03:44:29;;;;;;;3.92;3.00;;;3.30;33.40;;;;;;5088334;28;20122;-66
2022/01/20 03:47:01;;;;;;;6.18;3.50;;;3.30;34.10;;;;;;5086030;28;20047;-66
2022/01/20 03:49:37;;;;;;;4.85;3.30;;;3.30;34.70;;;;;;5089836;28;20048;-65
2022/01/20 03:52:06;;;;;;;4.38;3.10;;;3.20;34.20;;;;;;5088470;28;20331;-66
2022/01/20 03:54:34;;;;;;;5.53;3.35;;;3.20;34.10;;;;;;5085750;28;20131;-64
2022/01/20 03:57:03;;;;;;;5.22;3.05;;;3.20;34.70;;;;;;5085982;28;21492;-65
2022/01/20 03:59:31;;;;;;;5.15;3.63;;;3.20;34.80;;;;;;5087273;28;20051;-66
2022/01/20 04:02:01;;;;;;;6.07;4.30;;;3.20;34.90;;;;;;5088803;28;20062;-66
2022/01/20 04:04:29;;;;;;;4.40;3.83;;;3.10;35.00;;;;;;5082300;28;20043;-65
2022/01/20 04:06:58;;;;;;;5.13;3.70;;;3.10;34.20;;;;;;5085772;28;20822;-66
2022/01/20 04:09:25;;;;;;;5.57;3.65;;;3.10;33.90;;;;;;5087499;28;20058;-66
2022/01/20 04:11:54;;;;;;;5.05;4.00;;;3.10;34.20;;;;;;5087599;28;20487;-67
2022/01/20 04:14:24;;;;;;;4.85;3.72;;;3.00;34.20;;;;;;5068944;28;20403;-66
2022/01/20 04:17:02;;;;;;;6.47;3.83;;;3.10;34.00;;;;;;5085396;28;20101;-66
2022/01/20 04:19:33;;;;;;;5.63;4.10;;;3.10;34.30;;;;;;5087366;28;20056;-66
2022/01/20 04:22:03;;;;;;;6.80;3.92;;;3.10;34.20;;;;;;5087159;28;20036;-66
2022/01/20 04:24:31;;;;;;;5.07;3.92;;;3.10;33.90;;;;;;5086337;28;20480;-66
2022/01/20 04:27:00;;;;;;;5.28;3.65;;;3.10;33.70;;;;;;5083864;28;20399;-67
2022/01/20 04:29:28;;;;;;;6.05;3.78;;;3.10;33.90;;;;;;5087679;28;20063;-66
2022/01/20 04:31:56;;;;;;;5.40;3.83;;;3.10;34.00;;;;;;5087105;28;20133;-66
2022/01/20 04:34:24;;;;;;;4.93;3.75;;;3.10;34.00;;;;;;5083742;28;20040;-66
2022/01/20 04:36:55;;;;;;;5.30;4.13;;;3.10;33.50;;;;;;5084484;28;20153;-66
2022/01/20 04:39:27;;;;;;;6.10;4.57;;;3.20;33.80;;;;;;5088745;28;20106;-66
2022/01/20 04:41:56;;;;;;;6.65;3.97;;;3.20;32.50;;;;;;5088103;28;20055;-67
2022/01/20 04:44:40;;;;;;;5.65;4.05;;;3.20;32.90;;;;;;5067094;28;20059;-67
2022/01/20 04:47:29;;;;;;;5.23;4.10;;;3.20;33.60;;;;;;5084526;28;20052;-66
2022/01/20 04:58:15;;;;;;;7.20;4.82;;;2.90;39.90;;;;;;5086338;28;20114;-64
2022/01/20 05:00:43;;;;;;;6.90;4.47;;;2.90;40.50;;;;;;5087211;28;20036;-65
2022/01/20 05:03:11;;;;;;;7.40;4.95;;;2.90;40.50;;;;;;5086767;28;20055;-66
2022/01/20 05:05:39;;;;;;;5.53;4.22;;;2.80;40.40;;;;;;5085496;28;20044;-66
2022/01/20 05:08:09;;;;;;;9.02;4.53;;;2.80;41.30;;;;;;5066959;28;20079;-65
2022/01/20 05:10:38;;;;;;;7.97;4.57;;;2.80;40.80;;;;;;5086359;28;20040;-65
2022/01/20 05:13:11;;;;;;;5.82;4.25;;;2.70;41.70;;;;;;5086186;28;20102;-65
2022/01/20 05:15:40;;;;;;;7.07;5.05;;;2.80;41.80;;;;;;5084840;28;20415;-65
2022/01/20 05:18:08;;;;;;;7.30;4.43;;;2.80;41.60;;;;;;5085622;28;20052;-65
2022/01/20 05:20:36;;;;;;;7.25;4.63;;;2.80;41.90;;;;;;5086692;28;20143;-66
2022/01/20 05:23:04;;;;;;;6.22;4.28;;;2.80;42.30;;;;;;5087701;28;20071;-65
2022/01/20 05:25:34;;;;;;;9.05;5.13;;;2.80;40.40;;;;;;5084143;28;20446;-65
2022/01/20 05:28:02;;;;;;;6.22;4.38;;;2.80;41.90;;;;;;5086832;28;20118;-66
2022/01/20 05:30:30;;;;;;;6.47;4.50;;;2.80;42.00;;;;;;5086747;28;20044;-65
2022/01/20 05:32:59;;;;;;;6.93;4.32;;;2.80;41.50;;;;;;5085774;28;20420;-65
2022/01/20 05:35:28;;;;;;;7.82;5.00;;;2.80;41.20;;;;;;5085183;28;20139;-65
2022/01/20 05:37:56;;;;;;;6.57;4.50;;;2.80;41.10;;;;;;5085675;28;20143;-64
2022/01/20 05:40:25;;;;;;;7.32;4.43;;;2.90;41.30;;;;;;5069023;28;20670;-66
2022/01/20 05:42:55;;;;;;;8.40;4.80;;;2.90;40.80;;;;;;5085819;28;20579;-65
2022/01/20 05:45:24;;;;;;;6.47;4.43;;;2.90;40.90;;;;;;5081008;28;20571;-65
2022/01/20 05:48:07;;;;;;;7.93;5.28;;;2.90;40.50;;;;;;5085210;28;20075;-64
2022/01/20 05:50:35;;;;;;;7.35;4.88;;;2.90;40.50;;;;;;5083557;28;20134;-65
2022/01/20 05:53:04;;;;;;;7.78;5.00;;;2.90;40.40;;;;;;5087049;28;20055;-66
2022/01/20 05:55:33;;;;;;;8.05;4.75;;;2.90;40.40;;;;;;5083150;28;20122;-65
2022/01/20 05:58:05;;;;;;;7.70;4.82;;;2.90;39.90;;;;;;5082676;28;20420;-65
2022/01/20 06:00:34;;;;;;;8.13;5.35;;;2.90;40.10;;;;;;5084864;28;20063;-65
2022/01/20 06:05:49;;;;;;;8.80;6.10;;;3.00;38.60;;;;;;5081952;28;20044;-64
2022/01/20 06:08:17;;;;;;;12.20;6.05;;;3.00;38.50;;;;;;5081515;28;20526;-64
2022/01/20 06:10:45;;;;;;;6.75;4.88;;;3.00;38.10;;;;;;5083315;28;20495;-65
2022/01/20 06:13:15;;;;;;;11.23;6.07;;;2.90;38.40;;;;;;5084393;28;20094;-64
2022/01/20 06:15:43;;;;;;;9.52;5.57;;;2.90;38.10;;;;;;5079923;28;20044;-64
2022/01/20 06:18:11;;;;;;;9.70;5.95;;;3.00;38.40;;;;;;5083376;28;20119;-65
2022/01/20 06:20:40;;;;;;;8.02;5.90;;;3.00;38.60;;;;;;5084954;28;20052;-65
2022/01/20 06:23:08;;;;;;;12.98;6.70;;;3.00;38.60;;;;;;5088005;28;20040;-65
2022/01/20 06:25:37;;;;;;;10.00;6.97;;;3.00;38.10;;;;;;5081716;28;20047;-65
2022/01/20 06:28:06;;;;;;;14.23;7.13;;;3.00;38.40;;;;;;5083682;28;20040;-65
2022/01/20 06:30:35;;;;;;;11.82;7.03;;;3.10;38.20;;;;;;5086185;28;20551;-64
2022/01/20 06:33:04;;;;;;;11.90;7.03;;;3.10;37.50;;;;;;5084830;28;20412;-64
2022/01/20 06:35:33;;;;;;;13.10;7.70;;;3.10;37.50;;;;;;5083470;28;20539;-63
2022/01/20 06:38:01;;;;;;;12.80;7.80;;;3.00;37.50;;;;;;5083248;28;20050;-64
2022/01/20 06:40:30;;;;;;;11.88;7.22;;;3.00;37.70;;;;;;5083217;28;20759;-65
2022/01/20 06:42:58;;;;;;;12.15;6.30;;;3.10;37.90;;;;;;5064470;28;20056;-65
2022/01/20 06:45:26;;;;;;;14.48;6.63;;;3.00;37.70;;;;;;5079311;28;20142;-65
2022/01/20 06:47:57;;;;;;;12.75;7.15;;;3.00;37.70;;;;;;5079756;28;20040;-65
2022/01/20 06:50:26;;;;;;;11.32;6.72;;;2.90;37.50;;;;;;5065159;28;20052;-65
2022/01/20 06:52:54;;;;;;;11.20;6.50;;;2.90;37.70;;;;;;5083395;28;20143;-65
2022/01/20 06:55:23;;;;;;;11.63;6.57;;;2.90;36.90;;;;;;5083841;28;20566;-64
2022/01/20 06:57:51;;;;;;;14.05;7.43;;;2.90;36.30;;;;;;5081990;28;20048;-65
2022/01/20 07:00:22;;;;;;;13.25;7.55;;;3.00;36.60;;;;;;5085918;28;20123;-65
2022/01/20 07:02:50;;;;;;;10.10;6.88;;;3.00;36.80;;;;;;5085747;28;20483;-66
2022/01/20 07:05:21;;;;;;;9.82;6.25;;;3.00;36.40;;;;;;5083240;28;20051;-65
2022/01/20 07:07:49;;;;;;;12.70;6.82;;;3.00;36.30;;;;;;5085980;28;20069;-64
2022/01/20 07:10:19;;;;;;;9.00;5.70;;;2.90;35.50;;;;;;5089854;28;20423;-65
2022/01/20 07:12:47;;;;;;;9.07;4.78;;;2.90;34.30;;;;;;5090286;28;20210;-65
2022/01/20 07:15:17;;;;;;;9.63;5.38;;;2.80;34.50;;;;;;5081120;28;20071;-66
2022/01/20 07:17:45;;;;;;;9.65;5.32;;;2.80;34.20;;;;;;5086404;28;20426;-65
2022/01/20 07:20:14;;;;;;;8.55;5.10;;;2.80;34.50;;;;;;5092654;28;20139;-65
2022/01/20 07:22:43;;;;;;;11.73;5.25;;;2.70;34.50;;;;;;5088749;28;20559;-66
2022/01/20 07:25:11;;;;;;;10.00;5.35;;;2.70;35.00;;;;;;5068052;28;20583;-66
2022/01/20 07:27:39;;;;;;;6.90;4.93;;;2.70;34.50;;;;;;5086919;28;20040;-65
2022/01/20 07:30:27;;;;;;;13.57;6.07;;;2.70;34.20;;;;;;5086418;28;20083;-65
2022/01/20 07:32:57;;;;;;;10.82;5.30;;;2.80;33.90;;;;;;5088726;28;20049;-66
2022/01/20 07:35:25;;;;;;;10.90;5.63;;;2.80;32.00;;;;;;5082941;28;20720;-65
2022/01/20 07:37:54;;;;;;;12.02;5.75;;;2.80;32.10;;;;;;5086761;28;20214;-65
2022/01/20 07:40:22;;;;;;;10.57;5.55;;;2.80;32.50;;;;;;5090072;28;20130;-65
2022/01/20 07:42:50;;;;;;;9.35;5.55;;;2.90;32.10;;;;;;5088245;28;20131;-65
2022/01/20 07:45:20;;;;;;;9.95;6.13;;;2.80;32.10;;;;;;5067860;28;20121;-65
2022/01/20 07:47:49;;;;;;;11.90;6.43;;;2.80;32.00;;;;;;5086479;28;20121;-65
2022/01/20 07:50:17;;;;;;;13.82;6.43;;;2.80;32.70;;;;;;5070519;28;20093;-65
2022/01/20 07:52:45;;;;;;;10.27;6.10;;;2.80;33.00;;;;;;5088758;28;20144;-65
2022/01/20 07:55:15;;;;;;;13.77;6.55;;;2.70;33.40;;;;;;5084991;28;20072;-66
2022/01/20 07:57:43;;;;;;;12.30;6.68;;;2.70;34.50;;;;;;5086689;28;20147;-66
2022/01/20 08:00:12;;;;;;;11.75;6.28;;;2.80;34.40;;;;;;5088164;28;20134;-66
2022/01/20 08:02:40;;;;;;;13.60;6.38;;;2.70;34.00;;;;;;5089070;28;20747;-66
2022/01/20 08:05:10;;;;;;;12.88;6.75;;;2.70;34.40;;;;;;5085060;28;20400;-66
2022/01/20 08:07:38;;;;;;;15.20;6.57;;;2.80;33.60;;;;;;5086730;28;20040;-66
2022/01/20 08:10:07;;;;;;;13.57;6.93;;;2.80;32.60;;;;;;5088332;28;20434;-66
2022/01/20 08:12:37;;;;;;;17.73;7.55;;;2.80;32.00;;;;;;5087442;28;20106;-65
2022/01/20 08:15:09;;;;;;;15.23;6.78;;;2.90;32.70;;;;;;5084248;28;20074;-65
2022/01/20 08:17:37;;;;;;;14.45;6.60;;;2.90;31.00;;;;;;5085947;28;20094;-66
2022/01/20 08:20:07;;;;;;;15.35;6.93;;;3.00;31.00;;;;;;5087574;28;20052;-65
2022/01/20 08:22:35;;;;;;;20.15;7.30;;;3.00;30.00;;;;;;5089416;28;20135;-66
2022/01/20 08:25:04;;;;;;;15.15;6.07;;;3.00;30.30;;;;;;5085027;28;20404;-66
2022/01/20 08:27:33;;;;;;;16.80;7.63;;;3.10;30.10;;;;;;5085418;28;20067;-66
2022/01/20 08:30:02;;;;;;;14.80;6.90;;;3.10;29.50;;;;;;5086686;28;20046;-67
2022/01/20 08:32:30;;;;;;;16.23;6.43;;;3.10;29.10;;;;;;5085782;28;20074;-66
2022/01/20 08:35:02;;;;;;;16.55;6.95;;;3.10;28.50;;;;;;5085323;28;20044;-66
2022/01/20 08:37:30;;;;;;;13.02;6.25;;;3.10;28.00;;;;;;5084601;28;20063;-66
2022/01/20 08:39:58;;;;;;;15.13;7.10;;;3.20;28.60;;;;;;5088902;28;20059;-66
2022/01/20 08:42:26;;;;;;;14.57;6.38;;;3.20;27.30;;;;;;5085626;28;20079;-66
2022/01/20 08:44:55;;;;;;;13.57;6.20;;;3.20;26.30;;;;;;5085244;28;20095;-65
2022/01/20 08:47:26;;;;;;;11.70;6.63;;;3.30;26.80;;;;;;5082692;28;20481;-66
2022/01/20 08:49:54;;;;;;;11.27;5.70;;;3.40;25.40;;;;;;5086929;28;20507;-66
2022/01/20 08:52:22;;;;;;;10.65;5.50;;;3.40;25.40;;;;;;5083801;28;20119;-67
2022/01/20 08:54:50;;;;;;;10.93;5.55;;;3.40;25.40;;;;;;5085291;28;20123;-67
2022/01/20 08:57:18;;;;;;;13.73;5.90;;;3.50;25.00;;;;;;5084078;28;20071;-67
2022/01/20 08:59:46;;;;;;;11.77;5.80;;;3.40;25.40;;;;;;5088043;28;20147;-66
2022/01/20 09:02:14;;;;;;;9.50;5.53;;;3.50;25.40;;;;;;5084694;28;20803;-65
2022/01/20 09:04:44;;;;;;;11.02;6.15;;;3.50;24.50;;;;;;5085710;28;20108;-66
2022/01/20 09:07:12;;;;;;;13.90;5.45;;;3.60;24.30;;;;;;5082670;28;20139;-66
2022/01/20 09:09:42;;;;;;;8.32;5.55;;;3.60;25.20;;;;;;5086516;28;20044;-66
2022/01/20 09:15:27;;;;;;;14.00;7.00;;;3.60;23.80;;;;;;5085713;28;20181;-67
2022/01/20 09:17:55;;;;;;;10.35;5.72;;;3.80;23.10;;;;;;5086709;28;20157;-67
2022/01/20 09:20:25;;;;;;;12.80;5.90;;;3.70;23.50;;;;;;5087120;28;20059;-67
2022/01/20 09:22:55;;;;;;;18.52;7.15;;;3.80;23.80;;;;;;5087018;28;20512;-67
2022/01/20 09:25:24;;;;;;;12.90;5.70;;;3.80;24.00;;;;;;5083643;28;20071;-67
2022/01/20 09:27:55;;;;;;;13.98;6.25;;;3.80;23.20;;;;;;5084936;28;20044;-66
2022/01/20 09:30:25;;;;;;;14.15;6.43;;;3.90;24.30;;;;;;5086177;28;20098;-66
2022/01/20 09:32:59;;;;;;;12.73;6.35;;;3.90;24.30;;;;;;5085868;28;20456;-65
2022/01/20 09:35:31;;;;;;;13.63;6.45;;;3.90;22.40;;;;;;5084623;28;20070;-66
2022/01/20 09:38:00;;;;;;;14.45;6.55;;;3.90;23.20;;;;;;5084521;28;20044;-66
2022/01/20 09:40:30;;;;;;;21.65;6.25;;;4.00;23.10;;;;;;5086841;28;20044;-67
2022/01/20 09:42:58;;;;;;;12.90;6.28;;;4.10;22.40;;;;;;5087194;28;20506;-66
2022/01/20 09:45:27;;;;;;;18.77;6.05;;;4.10;21.50;;;;;;5083716;28;20171;-66
2022/01/20 09:47:56;;;;;;;14.40;5.80;;;4.20;21.20;;;;;;5084171;28;20070;-65
2022/01/20 09:50:25;;;;;;;14.75;5.35;;;3.90;19.60;;;;;;5086961;28;20076;-66
2022/01/20 09:52:58;;;;;;;12.93;5.40;;;4.00;20.60;;;;;;5086409;28;20044;-67
2022/01/20 09:55:27;;;;;;;13.32;6.03;;;4.10;20.40;;;;;;5083382;28;20119;-66
2022/01/20 09:57:55;;;;;;;11.85;5.28;;;4.10;19.70;;;;;;5084319;28;20139;-66
2022/01/20 10:00:23;;;;;;;11.60;6.03;;;4.10;18.90;;;;;;5086448;28;20494;-67
2022/01/20 10:02:58;;;;;;;18.70;5.57;;;4.30;20.00;;;;;;5085574;28;20049;-66
2022/01/20 10:05:32;;;;;;;11.07;5.25;;;4.20;18.60;;;;;;5065615;28;20170;-67
2022/01/20 10:08:09;;;;;;;16.25;6.20;;;4.20;19.10;;;;;;5083736;28;20127;-66
2022/01/20 10:10:39;;;;;;;12.07;5.47;;;4.20;18.20;;;;;;5086855;28;20127;-67
2022/01/20 10:13:08;;;;;;;18.70;5.95;;;4.20;18.60;;;;;;5084066;28;20142;-67
2022/01/20 10:15:37;;;;;;;11.98;5.07;;;4.20;18.90;;;;;;5082958;28;20130;-67
2022/01/20 10:18:09;;;;;;;14.52;6.00;;;4.10;18.10;;;;;;5082782;28;20044;-67
2022/01/20 10:20:37;;;;;;;9.13;5.30;;;4.10;19.00;;;;;;5087111;28;20048;-65
2022/01/20 10:23:07;;;;;;;14.60;5.90;;;4.10;18.20;;;;;;5087042;28;20050;-66
2022/01/20 10:25:36;;;;;;;20.25;8.23;;;4.30;17.90;;;;;;5083340;28;20126;-66
2022/01/20 10:28:04;;;;;;;11.40;5.30;;;4.20;17.40;;;;;;5083816;28;20131;-66
2022/01/20 10:30:33;;;;;;;11.13;4.47;;;4.30;18.20;;;;;;5086191;28;20085;-66
2022/01/20 10:33:02;;;;;;;12.13;5.78;;;4.20;17.50;;;;;;5082589;28;20090;-66
2022/01/20 10:35:34;;;;;;;10.68;5.80;;;4.30;16.60;;;;;;5085359;28;20050;-66
2022/01/20 10:38:11;;;;;;;17.00;6.13;;;4.40;16.40;;;;;;5081471;28;20044;-66
2022/01/20 10:40:50;;;;;;;11.25;4.97;;;4.40;14.90;;;;;;5087516;28;20044;-65
2022/01/20 10:43:22;;;;;;;13.20;5.05;;;4.40;15.80;;;;;;5088890;28;20117;-67
2022/01/20 10:46:00;;;;;;;15.25;5.53;;;4.50;14.60;;;;;;5088962;28;20051;-66
2022/01/20 10:48:28;;;;;;;12.80;6.00;;;4.60;15.50;;;;;;5086703;28;20102;-66
2022/01/20 10:50:56;;;;;;;8.55;5.47;;;4.60;14.40;;;;;;5092849;28;20054;-66
2022/01/20 10:53:25;;;;;;;11.30;4.95;;;4.70;15.00;;;;;;5093300;28;20040;-66
2022/01/20 10:56:05;;;;;;;11.77;4.97;;;4.50;14.20;;;;;;5090444;28;20064;-66
2022/01/20 10:58:34;;;;;;;8.55;4.45;;;4.50;13.60;;;;;;5090508;28;20078;-66
2022/01/20 11:01:03;;;;;;;12.90;5.15;;;4.40;13.50;;;;;;5092051;28;20039;-66
2022/01/20 11:03:35;;;;;;;11.38;5.10;;;4.40;14.20;;;;;;5090548;28;20050;-65
2022/01/20 11:06:03;;;;;;;12.88;5.85;;;4.50;14.30;;;;;;5089373;28;20079;-66
2022/01/20 11:08:31;;;;;;;11.25;4.90;;;4.40;13.40;;;;;;5090847;28;20071;-65
2022/01/20 11:11:02;;;;;;;10.20;4.90;;;4.30;14.90;;;;;;5093739;28;20071;-66
2022/01/20 11:13:31;;;;;;;15.95;5.35;;;4.30;15.20;;;;;;5095433;28;20052;-66
2022/01/20 11:15:59;;;;;;;13.13;5.72;;;4.40;15.20;;;;;;5089415;28;20152;-66
2022/01/20 11:18:28;;;;;;;10.70;5.38;;;4.30;15.40;;;;;;5085819;28;20055;-66
2022/01/20 11:20:58;;;;;;;13.77;5.13;;;4.40;15.40;;;;;;5089392;28;20569;-66
2022/01/20 11:23:37;;;;;;;9.98;4.50;;;4.60;14.50;;;;;;5089597;28;20131;-65
2022/01/20 11:26:07;;;;;;;12.45;5.28;;;4.80;14.30;;;;;;5071828;28;20051;-66
2022/01/20 11:28:35;;;;;;;10.55;5.55;;;4.70;12.30;;;;;;5089688;28;20079;-66
2022/01/20 11:31:06;;;;;;;13.20;5.57;;;4.70;12.40;;;;;;5091150;28;20094;-66
2022/01/20 11:33:35;;;;;;;15.43;4.95;;;4.90;11.40;;;;;;5090688;28;20068;-66
2022/01/20 11:36:05;;;;;;;12.00;4.72;;;4.90;12.40;;;;;;5090986;28;20044;-66
2022/01/20 11:38:41;;;;;;;8.55;4.20;;;5.10;12.00;;;;;;5088204;28;20086;-66
2022/01/20 11:41:14;;;;;;;12.60;4.75;;;5.00;10.90;;;;;;5091618;28;20105;-66
2022/01/20 11:43:44;;;;;;;10.23;4.25;;;5.00;9.60;;;;;;5086898;28;20067;-66
2022/01/20 11:46:15;;;;;;;11.68;4.30;;;5.10;9.00;;;;;;5089978;28;20058;-66
2022/01/20 11:48:55;;;;;;;8.18;4.28;;;5.20;9.10;;;;;;5087870;28;20040;-67
2022/01/20 11:51:24;;;;;;;11.10;4.70;;;5.20;9.10;;;;;;5092023;28;20051;-67
2022/01/20 11:54:13;;;;;;;8.30;4.10;;;5.00;9.70;;;;;;5083611;28;20084;-67
2022/01/20 11:56:44;;;;;;;6.60;4.00;;;4.80;7.80;;;;;;5085870;28;20159;-66
2022/01/20 11:59:15;;;;;;;12.23;4.95;;;4.80;8.90;;;;;;5087737;28;20108;-66
2022/01/20 12:01:45;;;;;;;9.80;3.88;;;4.40;10.00;;;;;;5088250;28;20072;-65
2022/01/20 12:04:15;;;;;;;17.33;7.32;;;2.30;24.80;;;;;;5084893;28;20044;-65
2022/01/20 12:06:46;;;;;;;17.08;5.97;;;1.60;35.60;;;;;;5067334;28;20097;-65
2022/01/20 12:09:17;;;;;;;22.92;9.60;;;1.20;40.50;;;;;;5087208;28;20070;-64
2022/01/20 12:11:47;;;;;;;19.63;8.50;;;1.20;50.60;;;;;;5087883;28;20047;-64
2022/01/20 12:14:32;;;;;;;11.32;3.63;;;1.10;51.10;;;;;;5081588;28;20446;-65
2022/01/20 12:17:09;;;;;;;6.93;2.27;;;1.30;47.40;;;;;;5079919;28;20137;-65
2022/01/20 12:19:37;;;;;;;7.78;2.15;;;1.40;47.00;;;;;;5084596;28;20282;-64
2022/01/20 12:22:09;;;;;;;5.10;2.05;;;1.40;42.30;;;;;;5088238;28;20056;-65
2022/01/20 12:24:37;;;;;;;7.57;2.30;;;1.50;41.00;;;;;;5081481;28;20037;-64
2022/01/20 12:27:16;;;;;;;6.57;1.85;;;1.60;39.30;;;;;;5083103;28;20571;-66
2022/01/20 12:29:44;;;;;;;6.95;2.15;;;1.70;35.10;;;;;;5084751;28;20047;-67
2022/01/20 12:32:16;;;;;;;12.25;3.25;;;1.80;31.20;;;;;;5086256;28;20118;-64
2022/01/20 12:34:45;;;;;;;8.57;2.83;;;1.90;32.60;;;;;;5084788;28;20110;-65
2022/01/20 12:37:13;;;;;;;6.90;2.53;;;2.00;31.50;;;;;;5083860;28;20496;-61
2022/01/20 12:39:41;;;;;;;13.25;3.10;;;2.00;31.40;;;;;;5086221;28;20043;-61
2022/01/20 12:42:11;;;;;;;12.32;3.30;;;2.00;31.40;;;;;;5086422;28;20446;-63
2022/01/20 12:44:48;;;;;;;8.88;2.63;;;2.00;33.40;;;;;;5082241;28;20131;-63
2022/01/20 12:47:18;;;;;;;8.93;2.65;;;1.90;34.00;;;;;;5081360;28;20132;-63
2022/01/20 12:49:54;;;;;;;6.95;2.85;;;2.00;34.10;;;;;;5084259;28;20534;-63
2022/01/20 12:52:22;;;;;;;8.82;3.03;;;2.00;35.00;;;;;;5084159;28;20110;-62
2022/01/20 12:54:51;;;;;;;6.68;3.20;;;2.00;36.10;;;;;;5081498;28;20048;-63
2022/01/20 12:57:20;;;;;;;9.00;3.38;;;2.00;36.50;;;;;;5082591;28;20117;-64
2022/01/20 12:59:49;;;;;;;10.18;3.30;;;2.00;35.60;;;;;;5084134;28;20127;-62
2022/01/20 13:02:23;;;;;;;8.73;2.97;;;2.00;35.60;;;;;;5084074;28;20483;-61
2022/01/20 13:04:57;;;;;;;12.27;3.85;;;1.90;35.50;;;;;;5078380;28;20147;-62
2022/01/20 13:07:25;;;;;;;9.20;3.63;;;1.90;35.90;;;;;;5082317;28;20044;-62
2022/01/20 13:10:02;;;;;;;9.38;3.95;;;2.00;37.40;;;;;;5085399;28;20072;-61
2022/01/20 13:12:37;;;;;;;8.18;4.00;;;1.90;37.50;;;;;;5086621;28;20057;-61
2022/01/20 13:15:18;;;;;;;11.13;4.05;;;1.90;37.60;;;;;;5079480;28;20159;-61
2022/01/20 13:17:46;;;;;;;8.68;3.38;;;2.00;39.10;;;;;;5082341;28;20067;-62
2022/01/20 13:20:21;;;;;;;11.57;3.80;;;2.00;37.90;;;;;;5084876;28;20044;-62
2022/01/20 13:22:58;;;;;;;10.27;3.55;;;2.00;37.20;;;;;;5085232;28;20040;-62
2022/01/20 13:25:27;;;;;;;8.55;3.72;;;2.20;38.70;;;;;;5083198;28;20056;-61
2022/01/20 13:28:00;;;;;;;10.48;3.80;;;2.10;36.60;;;;;;5083503;28;20094;-62
2022/01/20 13:30:36;;;;;;;12.18;4.55;;;2.10;36.60;;;;;;5064079;28;20113;-62
2022/01/20 13:33:05;;;;;;;;;;;2.20;37.90;;;;;;5086276;28;20483;-61
2022/01/20 13:35:39;;;;;;;10.57;3.88;;;2.20;37.90;;;;;;5082953;28;20009;-61
2022/01/20 13:38:08;;;;;;;8.02;3.38;;;2.20;36.80;;;;;;5084212;28;20538;-61
2022/01/20 13:40:37;;;;;;;13.70;3.55;;;2.20;38.50;;;;;;5086562;28;20094;-62
2022/01/20 13:45:53;;;;;;;13.13;3.97;;;2.30;37.00;;;;;;5082557;28;20147;-61
2022/01/20 13:48:27;;;;;;;12.77;4.28;;;2.10;37.20;;;;;;5083922;28;20131;-62
2022/01/20 13:50:58;;;;;;;9.70;4.22;;;2.20;37.30;;;;;;5085959;28;20083;-62
2022/01/20 13:53:28;;;;;;;9.15;3.88;;;2.30;38.20;;;;;;5085310;28;20071;-62
2022/01/20 13:55:58;;;;;;;8.50;4.30;;;2.40;38.70;;;;;;5084452;28;20055;-62
2022/01/20 13:58:28;;;;;;;10.98;4.43;;;2.20;36.10;;;;;;5083623;28;20450;-61
2022/01/20 14:00:59;;;;;;;10.07;4.72;;;2.30;38.20;;;;;;5084831;28;20090;-63
2022/01/20 14:03:28;;;;;;;8.43;3.70;;;2.30;37.50;;;;;;5084648;28;20474;-62
2022/01/20 14:05:56;;;;;;;11.50;4.63;;;2.20;36.70;;;;;;5083663;28;20157;-63